createdAt,value
2022-11-03T00:02:15.259Z,27.20
2022-11-03T00:04:43.680Z,33.13
2022-11-03T00:07:11.407Z,29.75
2022-11-03T00:09:41.363Z,33.13
2022-11-03T00:12:09.388Z,28.80
2022-11-03T00:14:37.439Z,29.77
2022-11-03T00:17:08.586Z,27.73
2022-11-03T00:55:35.709Z,33.90
2022-11-03T00:58:03.395Z,31.05
2022-11-03T01:00:31.001Z,29.30
2022-11-03T01:02:59.250Z,29.02
2022-11-03T01:05:47.352Z,26.88
2022-11-03T01:08:15.082Z,32.15
2022-11-03T01:11:02.769Z,27.98
2022-11-03T01:13:33.045Z,29.92
2022-11-03T01:16:00.628Z,35.83
2022-11-03T01:18:29.066Z,30.92
2022-11-03T01:20:57.451Z,33.08
2022-11-03T01:23:25.042Z,38.65
2022-11-03T01:25:55.500Z,28.15
2022-11-03T01:28:23.278Z,33.25
2022-11-03T01:30:50.774Z,28.50
2022-11-03T01:33:18.608Z,29.83
2022-11-03T01:35:46.130Z,29.30
2022-11-03T01:38:14.349Z,27.40
2022-11-03T01:40:42.117Z,29.83
2022-11-03T01:43:23.280Z,27.10
2022-11-03T01:46:04.101Z,36.83
2022-11-03T01:48:33.847Z,37.40
2022-11-03T01:53:31.434Z,33.10
2022-11-03T01:56:00.689Z,36.03
2022-11-03T01:58:32.149Z,36.40
2022-11-03T02:01:01.666Z,38.90
2022-11-03T02:03:37.654Z,40.00
2022-11-03T02:06:07.626Z,38.78
2022-11-03T02:08:41.386Z,42.97
2022-11-03T02:11:29.371Z,41.53
2022-11-03T02:13:57.051Z,38.05
2022-11-03T02:16:28.285Z,37.90
2022-11-03T02:18:57.759Z,38.85
2022-11-03T02:21:30.164Z,34.95
2022-11-03T02:24:01.706Z,39.75
2022-11-03T02:26:29.713Z,37.45
2022-11-03T02:28:58.075Z,40.35
2022-11-03T02:31:42.243Z,37.95
2022-11-03T02:34:37.575Z,29.35
2022-11-03T02:37:10.731Z,37.15
2022-11-03T02:39:46.567Z,32.03
2022-11-03T02:42:15.925Z,29.77
2022-11-03T02:44:45.877Z,33.08
2022-11-03T02:47:15.219Z,31.90
2022-11-03T02:49:51.027Z,32.38
2022-11-03T02:52:41.483Z,32.53
2022-11-03T02:55:32.169Z,32.90
2022-11-03T02:58:02.718Z,30.98
2022-11-03T03:00:35.051Z,30.25
2022-11-03T03:03:14.557Z,28.58
2022-11-03T03:05:45.554Z,28.27
2022-11-03T03:08:15.321Z,25.92
2022-11-03T03:10:46.404Z,27.20
2022-11-03T03:13:17.867Z,33.60
2022-11-03T03:15:56.098Z,28.85
2022-11-03T03:18:27.515Z,26.17
2022-11-03T03:21:15.272Z,29.48
2022-11-03T03:23:50.628Z,34.25
2022-11-03T03:26:44.464Z,32.60
2022-11-03T03:29:17.663Z,30.05
2022-11-03T03:31:51.755Z,26.63
2022-11-03T03:34:34.685Z,29.30
2022-11-03T03:37:06.066Z,32.40
2022-11-03T03:39:38.541Z,28.70
2022-11-03T03:42:10.412Z,24.17
2022-11-03T03:44:41.001Z,29.63
2022-11-03T03:47:17.725Z,30.13
2022-11-03T03:49:45.496Z,27.27
2022-11-03T03:52:15.979Z,25.45
2022-11-03T03:54:43.539Z,35.63
2022-11-03T03:57:23.373Z,28.38
2022-11-03T03:59:51.067Z,27.30
2022-11-03T04:02:18.735Z,33.33
2022-11-03T04:04:46.907Z,28.48
2022-11-03T04:07:32.836Z,27.85
2022-11-03T04:10:00.639Z,26.52
2022-11-03T04:12:46.786Z,27.67
2022-11-03T04:15:46.920Z,30.90
2022-11-03T04:18:33.453Z,31.02
2022-11-03T04:21:19.679Z,30.80
2022-11-03T04:23:47.382Z,30.55
2022-11-03T04:26:18.586Z,28.52
2022-11-03T04:28:46.770Z,31.63
2022-11-03T04:31:16.650Z,28.17
2022-11-03T04:33:45.102Z,28.60
2022-11-03T04:36:19.643Z,23.95
2022-11-03T04:38:48.367Z,27.13
2022-11-03T04:41:20.255Z,32.42
2022-11-03T04:43:51.668Z,28.73
2022-11-03T04:46:29.551Z,32.20
2022-11-03T04:49:01.066Z,28.85
2022-11-03T04:51:33.265Z,26.98
2022-11-03T04:54:13.559Z,33.28
2022-11-03T04:56:42.217Z,29.60
2022-11-03T04:59:16.360Z,32.33
2022-11-03T05:01:46.151Z,27.58
2022-11-03T05:04:17.397Z,35.95
2022-11-03T05:06:52.729Z,34.95
2022-11-03T05:09:27.072Z,32.20
2022-11-03T05:11:56.661Z,35.10
2022-11-03T05:14:30.350Z,34.28
2022-11-03T05:17:00.329Z,32.22
2022-11-03T05:19:33.528Z,33.63
2022-11-03T05:22:03.772Z,32.03
2022-11-03T05:24:33.145Z,29.45
2022-11-03T05:27:00.752Z,32.65
2022-11-03T05:29:39.473Z,28.95
2022-11-03T05:32:16.680Z,37.63
2022-11-03T05:34:51.524Z,31.42
2022-11-03T05:37:32.204Z,32.53
2022-11-03T05:40:14.406Z,30.05
2022-11-03T05:42:45.286Z,26.70
2022-11-03T05:45:22.997Z,27.55
2022-11-03T05:47:54.545Z,28.13
2022-11-03T05:50:25.328Z,31.70
2022-11-03T05:53:12.393Z,31.67
2022-11-03T05:58:31.322Z,29.30
2022-11-03T06:01:01.901Z,28.00
2022-11-03T06:03:31.598Z,30.30
2022-11-03T06:06:01.304Z,28.27
2022-11-03T06:08:37.011Z,32.33
2022-11-03T06:11:15.722Z,29.58
2022-11-03T06:13:43.591Z,29.85
2022-11-03T06:16:39.030Z,29.08
2022-11-03T06:19:35.753Z,37.55
2022-11-03T06:22:15.564Z,27.77
2022-11-03T06:24:47.462Z,36.47
2022-11-03T06:27:22.515Z,31.30
2022-11-03T06:30:04.096Z,32.42
2022-11-03T06:32:34.009Z,29.75
2022-11-03T06:35:01.572Z,32.15
2022-11-03T06:37:32.965Z,33.20
2022-11-03T06:40:22.374Z,26.02
2022-11-03T06:45:22.518Z,31.90
2022-11-03T06:47:52.220Z,28.27
2022-11-03T06:50:22.272Z,32.50
2022-11-03T06:52:50.954Z,29.98
2022-11-03T06:55:21.166Z,34.10
2022-11-03T06:57:51.134Z,30.10
2022-11-03T07:00:34.196Z,31.98
2022-11-03T07:03:10.626Z,28.85
2022-11-03T07:05:40.115Z,32.33
2022-11-03T07:08:30.321Z,36.05
2022-11-03T07:11:04.281Z,32.10
2022-11-03T07:13:34.119Z,28.00
2022-11-03T07:16:03.959Z,26.73
2022-11-03T07:18:35.978Z,27.50
2022-11-03T07:21:24.412Z,27.00
2022-11-03T07:23:52.500Z,32.15
2022-11-03T07:26:20.412Z,26.73
2022-11-03T07:28:48.606Z,28.58
2022-11-03T07:31:20.478Z,29.85
2022-11-03T07:33:48.527Z,31.17
2022-11-03T07:36:22.884Z,30.10
2022-11-03T07:38:53.360Z,29.88
2022-11-03T07:41:29.562Z,35.70
2022-11-03T07:44:01.799Z,32.47
2022-11-03T07:46:29.777Z,27.60
2022-11-03T07:48:59.531Z,36.67
2022-11-03T07:51:42.846Z,38.58
2022-11-03T07:54:27.030Z,32.92
2022-11-03T07:56:58.664Z,30.40
2022-11-03T07:59:33.365Z,32.22
2022-11-03T08:02:03.252Z,33.70
2022-11-03T08:04:34.460Z,28.63
2022-11-03T08:07:03.530Z,35.38
2022-11-03T08:09:31.152Z,31.15
2022-11-03T08:11:58.839Z,33.33
2022-11-03T08:14:26.478Z,29.67
2022-11-03T08:16:54.622Z,28.05
2022-11-03T08:19:22.158Z,31.90
2022-11-03T08:21:50.714Z,26.27
2022-11-03T08:24:18.410Z,25.83
2022-11-03T08:26:45.985Z,28.25
2022-11-03T08:29:13.451Z,26.55
2022-11-03T08:31:40.976Z,27.52
2022-11-03T08:34:08.844Z,26.17
2022-11-03T08:36:37.679Z,27.95
2022-11-03T08:39:06.120Z,22.65
2022-11-03T08:41:34.470Z,21.60
2022-11-03T08:44:02.054Z,24.42
2022-11-03T08:46:29.743Z,25.35
2022-11-03T08:48:57.512Z,23.20
2022-11-03T08:51:25.699Z,20.65
2022-11-03T08:53:56.078Z,36.75
2022-11-03T08:56:24.451Z,22.83
2022-11-03T08:58:52.242Z,22.95
2022-11-03T09:01:19.840Z,24.95
2022-11-03T09:03:47.759Z,20.92
2022-11-03T09:06:16.607Z,34.15
2022-11-03T09:11:32.734Z,20.58
2022-11-03T09:14:00.365Z,22.38
2022-11-03T09:16:27.937Z,24.20
2022-11-03T09:18:56.294Z,24.30
2022-11-03T09:21:24.227Z,20.95
2022-11-03T09:23:52.169Z,24.02
2022-11-03T09:26:20.612Z,24.15
2022-11-03T09:28:49.608Z,24.13
2022-11-03T09:31:18.596Z,20.95
2022-11-03T09:33:46.386Z,17.70
2022-11-03T09:36:14.252Z,22.85
2022-11-03T09:38:41.979Z,17.17
2022-11-03T09:41:19.497Z,21.30
2022-11-03T09:43:58.366Z,20.33
2022-11-03T09:46:28.797Z,24.13
2022-11-03T09:48:56.850Z,23.50
2022-11-03T09:51:26.859Z,16.50
2022-11-03T09:54:02.298Z,16.85
2022-11-03T09:56:30.662Z,16.92
2022-11-03T09:58:59.905Z,16.33
2022-11-03T10:01:27.932Z,20.17
2022-11-03T10:03:59.588Z,22.42
2022-11-03T10:06:27.364Z,21.55
2022-11-03T10:08:55.031Z,19.85
2022-11-03T10:11:23.597Z,17.33
2022-11-03T10:13:55.912Z,20.55
2022-11-03T10:16:26.429Z,19.85
2022-11-03T10:18:54.401Z,23.00
2022-11-03T10:21:34.303Z,22.98
2022-11-03T10:24:02.329Z,15.82
2022-11-03T10:26:44.726Z,15.43
2022-11-03T10:29:21.568Z,17.90
2022-11-03T10:31:52.295Z,17.00
2022-11-03T10:34:24.541Z,21.38
2022-11-03T10:37:22.861Z,15.80
2022-11-03T10:39:53.132Z,22.90
2022-11-03T10:42:20.914Z,18.08
2022-11-03T10:44:51.995Z,18.77
2022-11-03T10:47:37.968Z,16.35
2022-11-03T10:50:31.714Z,16.05
2022-11-03T10:52:59.578Z,13.15
2022-11-03T10:55:27.992Z,14.63
2022-11-03T10:57:56.649Z,18.65
2022-11-03T11:00:24.966Z,19.75
2022-11-03T11:02:59.155Z,15.63
2022-11-03T11:05:27.232Z,13.95
2022-11-03T11:07:56.756Z,19.02
2022-11-03T11:10:26.892Z,12.75
2022-11-03T11:13:15.221Z,20.30
2022-11-03T11:15:52.361Z,14.85
2022-11-03T11:18:29.147Z,14.82
2022-11-03T11:21:00.480Z,12.52
2022-11-03T11:23:28.821Z,13.45
2022-11-03T11:26:29.629Z,14.50
2022-11-03T11:29:32.226Z,12.15
2022-11-03T11:32:39.154Z,15.30
2022-11-03T11:35:11.777Z,13.98
2022-11-03T11:37:39.557Z,16.98
2022-11-03T11:40:34.520Z,11.63
2022-11-03T11:43:11.761Z,16.38
2022-11-03T11:46:17.594Z,18.55
2022-11-03T11:48:46.027Z,11.18
2022-11-03T11:51:13.764Z,11.98
2022-11-03T11:53:42.987Z,18.27
2022-11-03T11:56:13.326Z,12.32
2022-11-03T11:58:50.060Z,10.70
2022-11-03T12:01:24.967Z,12.15
2022-11-03T12:03:56.333Z,11.07
2022-11-03T12:06:38.149Z,14.65
2022-11-03T12:09:13.337Z,17.85
2022-11-03T12:11:45.717Z,9.30
2022-11-03T12:14:33.269Z,11.60
2022-11-03T12:17:17.245Z,9.90
2022-11-03T12:19:49.862Z,7.35
2022-11-03T12:22:23.246Z,9.77
2022-11-03T12:24:55.346Z,9.90
2022-11-03T12:27:43.466Z,9.40
2022-11-03T12:30:19.189Z,13.07
2022-11-03T12:32:47.569Z,3.20
2022-11-03T12:35:15.395Z,7.45
2022-11-03T12:37:43.146Z,8.23
2022-11-03T12:40:13.903Z,6.00
2022-11-03T12:42:42.398Z,7.40
2022-11-03T12:45:10.907Z,11.40
2022-11-03T12:47:38.757Z,8.45
2022-11-03T12:50:06.835Z,9.68
2022-11-03T12:52:34.521Z,6.53
2022-11-03T12:55:02.170Z,4.32
2022-11-03T12:57:30.387Z,11.38
2022-11-03T12:59:58.375Z,7.72
2022-11-03T13:02:26.116Z,5.57
2022-11-03T13:04:53.899Z,6.97
2022-11-03T13:07:26.778Z,10.60
2022-11-03T13:09:58.006Z,12.82
2022-11-03T13:12:31.877Z,8.50
2022-11-03T13:15:01.364Z,11.20
2022-11-03T13:17:35.860Z,11.25
2022-11-03T13:20:17.435Z,9.85
2022-11-03T13:22:45.579Z,6.50
2022-11-03T13:25:13.291Z,7.25
2022-11-03T13:27:41.175Z,11.18
2022-11-03T13:30:10.219Z,7.78
2022-11-03T13:32:38.675Z,9.97
2022-11-03T13:35:12.367Z,8.27
2022-11-03T13:37:42.137Z,13.52
2022-11-03T13:40:29.268Z,10.38
2022-11-03T13:45:27.627Z,9.80
2022-11-03T13:49:08.816Z,10.65
2022-11-03T13:50:43.716Z,13.20
2022-11-03T13:56:04.950Z,11.88
2022-11-03T14:01:25.074Z,11.57
2022-11-03T14:06:41.833Z,12.70
2022-11-03T14:09:10.427Z,10.35
2022-11-03T14:11:58.203Z,10.38
2022-11-03T14:14:26.377Z,17.48
2022-11-03T14:16:54.528Z,24.35
2022-11-03T14:19:23.640Z,13.98
2022-11-03T14:21:53.105Z,13.00
2022-11-03T14:24:20.729Z,11.73
2022-11-03T14:26:48.411Z,11.45
2022-11-03T14:29:16.010Z,10.95
2022-11-03T14:31:43.993Z,36.42
2022-11-03T14:34:11.782Z,24.38
2022-11-03T14:36:39.880Z,10.95
2022-11-03T14:39:07.609Z,12.88
2022-11-03T14:41:54.199Z,15.73
2022-11-03T14:44:22.034Z,14.00
2022-11-03T14:46:50.009Z,15.95
2022-11-03T14:49:17.951Z,16.33
2022-11-03T14:51:47.931Z,20.92
2022-11-03T14:54:15.983Z,21.08
2022-11-03T14:56:43.622Z,14.57
2022-11-03T14:59:11.769Z,18.52
2022-11-03T15:01:39.776Z,15.48
2022-11-03T15:04:11.934Z,18.65
2022-11-03T15:06:40.763Z,16.83
2022-11-03T15:11:43.070Z,13.13
2022-11-03T15:16:40.633Z,12.52
2022-11-03T15:19:09.423Z,18.05
2022-11-03T15:21:37.182Z,18.90
2022-11-03T15:26:53.757Z,11.38
2022-11-03T15:29:24.522Z,14.70
2022-11-03T15:32:05.842Z,13.57
2022-11-03T15:35:11.510Z,11.00
2022-11-03T15:37:40.059Z,10.85
2022-11-03T15:40:18.158Z,7.03
2022-11-03T15:42:48.127Z,9.85
2022-11-03T15:45:15.978Z,8.48
2022-11-03T15:50:14.195Z,9.90
2022-11-03T15:52:42.561Z,10.48
2022-11-03T15:55:10.727Z,12.20
2022-11-03T15:57:38.596Z,12.77
2022-11-03T16:00:07.071Z,11.48
2022-11-03T16:02:42.056Z,13.20
2022-11-03T16:05:10.433Z,10.48
2022-11-03T16:07:38.380Z,12.95
2022-11-03T16:10:07.152Z,14.02
2022-11-03T16:12:37.597Z,15.52
2022-11-03T16:15:05.895Z,14.40
2022-11-03T16:17:33.609Z,15.45
2022-11-03T16:20:01.527Z,19.30
2022-11-03T16:22:29.592Z,15.02
2022-11-03T16:24:57.520Z,17.30
2022-11-03T16:27:25.593Z,10.00
2022-11-03T16:29:55.714Z,8.57
2022-11-03T16:32:23.577Z,8.48
2022-11-03T16:34:51.297Z,8.93
2022-11-03T16:37:19.616Z,9.65
2022-11-03T16:39:47.163Z,12.32
2022-11-03T16:42:14.946Z,10.95
2022-11-03T16:44:42.642Z,17.52
2022-11-03T16:47:10.257Z,15.85
2022-11-03T16:49:41.735Z,15.65
2022-11-03T16:52:09.721Z,21.73
2022-11-03T16:54:37.383Z,20.20
2022-11-03T16:57:05.828Z,19.70
2022-11-03T16:59:33.605Z,21.88
2022-11-03T17:02:01.417Z,19.02
2022-11-03T17:04:29.119Z,26.23
2022-11-03T17:06:56.705Z,24.15
2022-11-03T17:09:24.318Z,19.58
2022-11-03T17:11:52.465Z,16.73
2022-11-03T17:14:20.366Z,18.88
2022-11-03T17:16:48.762Z,21.25
2022-11-03T17:19:18.168Z,17.85
2022-11-03T17:21:45.734Z,17.33
2022-11-03T17:24:13.438Z,14.00
2022-11-03T17:27:12.744Z,15.90
2022-11-03T17:29:53.470Z,18.57
2022-11-03T17:32:30.397Z,18.63
2022-11-03T17:34:59.000Z,20.67
2022-11-03T17:37:28.032Z,22.10
2022-11-03T17:39:56.767Z,18.63
2022-11-03T17:42:26.564Z,20.05
2022-11-03T17:44:56.448Z,17.85
2022-11-03T17:47:24.550Z,24.40
2022-11-03T17:49:52.341Z,21.67
2022-11-03T17:52:26.859Z,22.52
2022-11-03T17:55:00.191Z,21.80
2022-11-03T17:57:28.135Z,22.75
2022-11-03T17:59:58.480Z,25.88
2022-11-03T18:02:28.979Z,22.63
2022-11-03T18:05:14.163Z,25.70
2022-11-03T18:07:46.958Z,23.42
2022-11-03T18:10:14.937Z,16.20
2022-11-03T18:13:05.227Z,13.43
2022-11-03T18:15:39.242Z,16.90
2022-11-03T18:18:31.210Z,17.90
2022-11-03T18:20:59.419Z,19.77
2022-11-03T18:23:31.083Z,17.25
2022-11-03T18:26:01.225Z,16.45
2022-11-03T18:28:30.283Z,14.05
2022-11-03T18:30:58.887Z,19.50
2022-11-03T18:33:34.388Z,15.45
2022-11-03T18:36:04.282Z,16.75
2022-11-03T18:38:34.100Z,16.80
2022-11-03T18:41:02.260Z,14.25
2022-11-03T18:43:29.960Z,19.33
2022-11-03T18:45:57.586Z,20.80
2022-11-03T18:48:25.425Z,16.58
2022-11-03T18:50:55.870Z,16.80
2022-11-03T18:53:25.921Z,14.32
2022-11-03T18:55:57.669Z,17.50
2022-11-03T18:58:26.011Z,16.70
2022-11-03T19:00:54.058Z,13.20
2022-11-03T19:03:23.634Z,14.18
2022-11-03T19:05:52.913Z,13.13
2022-11-03T19:08:28.046Z,15.45
2022-11-03T19:11:03.849Z,14.20
2022-11-03T19:13:37.651Z,16.77
2022-11-03T19:16:15.296Z,12.77
2022-11-03T19:18:47.858Z,11.98
2022-11-03T19:21:19.447Z,14.35
2022-11-03T19:23:49.033Z,12.55
2022-11-03T19:26:23.384Z,15.65
2022-11-03T19:28:56.264Z,13.25
2022-11-03T19:31:38.114Z,13.25
2022-11-03T19:34:09.034Z,13.25
2022-11-03T19:36:37.455Z,14.73
2022-11-03T19:39:26.719Z,13.23
2022-11-03T19:42:12.925Z,12.05
2022-11-03T19:44:42.135Z,16.65
2022-11-03T19:47:18.094Z,15.57
2022-11-03T19:49:47.203Z,18.02
2022-11-03T19:52:16.301Z,19.02
2022-11-03T19:57:16.847Z,15.07
2022-11-03T19:59:44.947Z,21.42
2022-11-03T20:02:13.092Z,15.10
2022-11-03T20:04:44.615Z,15.63
2022-11-03T20:07:14.268Z,14.52
2022-11-03T20:09:41.975Z,17.08
2022-11-03T20:12:19.218Z,16.30
2022-11-03T20:14:46.858Z,16.38
2022-11-03T20:17:21.578Z,16.13
2022-11-03T20:19:49.222Z,16.30
2022-11-03T20:22:21.283Z,17.83
2022-11-03T20:24:51.231Z,16.33
2022-11-03T20:27:21.579Z,17.87
2022-11-03T20:29:49.489Z,17.75
2022-11-03T20:32:17.474Z,15.50
2022-11-03T20:34:46.714Z,18.27
2022-11-03T20:37:19.185Z,21.77
2022-11-03T20:39:48.676Z,18.38
2022-11-03T20:42:22.822Z,19.17
2022-11-03T20:44:50.964Z,18.63
2022-11-03T20:47:19.456Z,19.42
2022-11-03T20:49:47.070Z,20.80
2022-11-03T20:52:16.174Z,23.67
2022-11-03T20:54:44.582Z,20.70
2022-11-03T20:57:13.774Z,18.52
2022-11-03T20:59:41.829Z,21.88
2022-11-03T21:02:11.951Z,21.67
2022-11-03T21:04:41.066Z,25.40
2022-11-03T21:07:12.766Z,21.05
2022-11-03T21:09:41.099Z,18.92
2022-11-03T21:12:13.288Z,22.13
2022-11-03T21:15:02.235Z,17.00
2022-11-03T21:17:49.954Z,23.67
2022-11-03T21:20:17.791Z,19.52
2022-11-03T21:22:52.438Z,19.95
2022-11-03T21:25:23.390Z,20.40
2022-11-03T21:27:54.019Z,22.40
2022-11-03T21:30:22.420Z,26.65
2022-11-03T21:32:50.106Z,23.48
2022-11-03T21:35:20.379Z,23.02
2022-11-03T21:37:48.443Z,24.45
2022-11-03T21:40:16.536Z,25.30
2022-11-03T21:43:02.924Z,25.63
2022-11-03T21:45:33.518Z,25.75
2022-11-03T21:48:21.379Z,23.73
2022-11-03T21:50:49.496Z,21.42
2022-11-03T21:53:17.598Z,26.25
2022-11-03T21:55:48.488Z,24.80
2022-11-03T21:58:16.562Z,27.15
2022-11-03T22:00:47.239Z,22.67
2022-11-03T22:03:15.932Z,24.35
2022-11-03T22:05:43.783Z,23.50
2022-11-03T22:08:12.352Z,27.30
2022-11-03T22:10:40.798Z,24.95
2022-11-03T22:13:08.814Z,27.15
2022-11-03T22:15:55.450Z,26.35
2022-11-03T22:18:23.462Z,32.25
2022-11-03T22:21:24.161Z,28.50
2022-11-03T22:24:13.338Z,29.95
2022-11-03T22:26:55.807Z,29.35
2022-11-03T22:29:42.023Z,26.77
2022-11-03T22:32:15.050Z,26.30
2022-11-03T22:35:02.411Z,28.80
2022-11-03T22:40:16.311Z,24.77
2022-11-03T22:43:03.140Z,26.88
2022-11-03T22:45:50.095Z,27.40
2022-11-03T22:48:19.121Z,30.85
2022-11-03T22:50:47.206Z,26.77
2022-11-03T22:53:33.455Z,30.95
2022-11-03T22:56:01.679Z,31.58
2022-11-03T22:58:30.607Z,34.10
2022-11-03T23:01:03.728Z,29.35
2022-11-03T23:03:33.128Z,27.27
2022-11-03T23:06:05.824Z,30.95
2022-11-03T23:08:35.435Z,27.40
2022-11-03T23:11:16.204Z,29.88
2022-11-03T23:13:46.106Z,28.40
2022-11-03T23:19:00.811Z,30.17
2022-11-03T23:21:32.062Z,28.83
2022-11-03T23:24:19.117Z,33.05
2022-11-03T23:26:47.238Z,27.67
2022-11-03T23:29:15.827Z,28.35
2022-11-03T23:31:44.929Z,27.02
2022-11-03T23:34:13.765Z,26.45
2022-11-03T23:36:42.016Z,21.23
2022-11-03T23:39:16.615Z,19.10
2022-11-03T23:41:45.082Z,17.50
2022-11-03T23:44:14.894Z,16.48
2022-11-03T23:47:02.740Z,14.35
2022-11-03T23:49:30.663Z,13.13
2022-11-03T23:51:58.263Z,10.27
2022-11-03T23:54:27.367Z,12.05
2022-11-03T23:57:15.253Z,11.45
2022-11-03T23:59:42.942Z,10.35
